Time;durP1;ratioP1;P1;durP2;ratioP2;P2;SDS_P1;SDS_P2;PMS_P1;PMS_P2;Temp;Humidity;BMP_temperature;BMP_pressure;BME280_temperature;BME280_humidity;BME280_pressure;Samples;Min_cycle;Max_cycle;Signal;HPM_P1;HPM_P2
2023/09/17 00:04:34;;;;;;;;;;;22.80;64.60;;;;;;10336583;28;19934;-43
2023/09/17 00:09:36;;;;;;;;;;;22.80;64.60;;;;;;10326633;28;20020;-42
2023/09/17 00:14:38;;;;;;;;;;;22.80;64.50;;;;;;10327801;28;19940;-45
2023/09/17 00:19:39;;;;;;;;;;;22.80;64.50;;;;;;10346700;28;19934;-44
2023/09/17 00:24:41;;;;;;;;;;;22.80;64.60;;;;;;10339166;28;20384;-44
2023/09/17 00:29:43;;;;;;;;;;;22.80;64.60;;;;;;10338541;28;19934;-45
2023/09/17 00:34:45;;;;;;;;;;;22.80;64.50;;;;;;10343743;28;20096;-46
2023/09/17 00:39:46;;;;;;;;;;;22.80;64.50;;;;;;10336720;28;19938;-42
2023/09/17 00:44:48;;;;;;;;;;;22.80;64.50;;;;;;10339366;28;20375;-43
2023/09/17 00:49:50;;;;;;;;;;;22.80;64.50;;;;;;10350616;28;19934;-45
2023/09/17 00:54:51;;;;;;;;;;;22.70;64.40;;;;;;10330320;28;19985;-46
2023/09/17 00:59:53;;;;;;;;;;;22.70;64.40;;;;;;10367291;28;20295;-46
2023/09/17 01:04:55;;;;;;;;;;;22.70;64.50;;;;;;10357139;28;19934;-45
2023/09/17 01:09:57;;;;;;;;;;;22.70;64.50;;;;;;10334894;28;20488;-43
2023/09/17 01:14:59;;;;;;;;;;;22.70;64.50;;;;;;10344315;28;19933;-43
2023/09/17 01:20:07;;;;;;;;;;;22.70;64.60;;;;;;10339260;28;19933;-44
2023/09/17 01:25:28;;;;;;;;;;;22.70;64.60;;;;;;10356565;28;20073;-44
2023/09/17 01:30:30;;;;;;;;;;;22.60;64.60;;;;;;10356541;28;20313;-48
2023/09/17 01:35:33;;;;;;;;;;;22.60;64.50;;;;;;10349470;28;19933;-46
2023/09/17 01:40:35;;;;;;;;;;;22.70;64.60;;;;;;10352287;28;19941;-46
2023/09/17 01:45:37;;;;;;;;;;;22.60;64.50;;;;;;10333301;28;19938;-45
2023/09/17 01:50:39;;;;;;;;;;;22.60;64.60;;;;;;10334255;28;20069;-46
2023/09/17 01:55:43;;;;;;;;;;;22.60;64.60;;;;;;10353713;28;19933;-44
2023/09/17 02:00:45;;;;;;;;;;;22.60;64.50;;;;;;10364590;28;20513;-44
2023/09/17 02:05:47;;;;;;;;;;;22.60;64.60;;;;;;10367180;28;19933;-44
2023/09/17 02:10:49;;;;;;;;;;;22.60;64.60;;;;;;10380347;28;19940;-46
2023/09/17 02:15:50;;;;;;;;;;;22.60;64.60;;;;;;10327878;28;19941;-47
2023/09/17 02:20:52;;;;;;;;;;;22.60;64.60;;;;;;10376451;28;20015;-46
2023/09/17 02:25:54;;;;;;;;;;;22.60;64.60;;;;;;10359107;28;19933;-48
2023/09/17 02:30:59;;;;;;;;;;;22.60;64.70;;;;;;10341088;28;20373;-45
2023/09/17 02:36:03;;;;;;;;;;;22.50;64.50;;;;;;10335967;28;20017;-46
2023/09/17 02:41:05;;;;;;;;;;;22.60;64.60;;;;;;10348888;28;20304;-47
2023/09/17 02:46:06;;;;;;;;;;;22.60;64.50;;;;;;10348096;28;19941;-46
2023/09/17 02:51:08;;;;;;;;;;;22.60;64.50;;;;;;10335038;28;20895;-43
2023/09/17 02:56:10;;;;;;;;;;;22.60;64.40;;;;;;10336503;28;20507;-47
2023/09/17 03:01:16;;;;;;;;;;;22.60;64.40;;;;;;10348048;28;19934;-46
2023/09/17 03:06:18;;;;;;;;;;;22.60;64.40;;;;;;10340320;28;19933;-44
2023/09/17 03:11:21;;;;;;;;;;;22.60;64.30;;;;;;10349750;28;19934;-45
2023/09/17 03:16:22;;;;;;;;;;;22.60;64.30;;;;;;10361562;28;20509;-47
2023/09/17 03:21:27;;;;;;;;;;;22.60;64.30;;;;;;10354962;28;19934;-43
2023/09/17 03:26:29;;;;;;;;;;;22.60;64.30;;;;;;10344979;28;19941;-43
2023/09/17 03:31:32;;;;;;;;;;;22.60;64.30;;;;;;10347450;28;19956;-44
2023/09/17 03:36:35;;;;;;;;;;;22.60;64.30;;;;;;10353375;28;19940;-48
2023/09/17 03:41:40;;;;;;;;;;;22.60;64.30;;;;;;10338318;28;20385;-46
2023/09/17 03:46:42;;;;;;;;;;;22.60;64.30;;;;;;10326104;28;20530;-49
2023/09/17 03:51:43;;;;;;;;;;;22.60;64.40;;;;;;10333607;28;20017;-48
2023/09/17 03:56:45;;;;;;;;;;;22.60;64.40;;;;;;10341664;28;19961;-43
2023/09/17 04:01:48;;;;;;;;;;;22.60;64.30;;;;;;10358670;28;20028;-45
2023/09/17 04:06:51;;;;;;;;;;;22.60;64.40;;;;;;10338545;28;20310;-45
2023/09/17 04:11:52;;;;;;;;;;;22.60;64.40;;;;;;10351240;28;19942;-43
2023/09/17 04:16:54;;;;;;;;;;;22.60;64.40;;;;;;10353274;28;19933;-48
2023/09/17 04:21:57;;;;;;;;;;;22.60;64.40;;;;;;10360611;28;19933;-45
2023/09/17 04:26:59;;;;;;;;;;;22.60;64.40;;;;;;10338131;28;19934;-51
2023/09/17 04:32:00;;;;;;;;;;;22.50;64.40;;;;;;10362814;28;19941;-45
2023/09/17 04:37:02;;;;;;;;;;;22.50;64.40;;;;;;10355658;28;19940;-45
2023/09/17 04:42:05;;;;;;;;;;;22.50;64.50;;;;;;10354378;28;20021;-48
2023/09/17 04:52:22;;;;;;;;;;;22.50;64.50;;;;;;10344091;28;20036;-68
2023/09/17 04:57:24;;;;;;;;;;;22.50;64.50;;;;;;10383083;28;20511;-68
2023/09/17 05:02:26;;;;;;;;;;;22.50;65.50;;;;;;10342616;28;19941;-68
2023/09/17 05:07:28;;;;;;;;;;;22.50;64.50;;;;;;10351077;28;19933;-68
2023/09/17 05:12:30;;;;;;;;;;;22.50;64.60;;;;;;10313943;28;20469;-69
2023/09/17 05:17:32;;;;;;;;;;;22.50;64.70;;;;;;10357313;28;20291;-69
2023/09/17 05:22:34;;;;;;;;;;;22.50;64.60;;;;;;10332354;28;20853;-69
2023/09/17 05:27:37;;;;;;;;;;;22.50;64.70;;;;;;10332763;28;19938;-69
2023/09/17 05:32:39;;;;;;;;;;;22.50;64.70;;;;;;10355602;28;19934;-69
2023/09/17 05:37:40;;;;;;;;;;;22.50;64.70;;;;;;10341721;28;19941;-69
2023/09/17 05:42:43;;;;;;;;;;;22.40;64.80;;;;;;10345954;28;19980;-69
2023/09/17 05:47:45;;;;;;;;;;;22.40;64.80;;;;;;10359557;28;19933;-68
2023/09/17 05:52:47;;;;;;;;;;;22.40;64.80;;;;;;10353269;28;20023;-69
2023/09/17 05:57:49;;;;;;;;;;;22.40;64.90;;;;;;10352377;28;19941;-70
2023/09/17 06:02:50;;;;;;;;;;;22.40;64.90;;;;;;10346870;28;20321;-68
2023/09/17 06:07:53;;;;;;;;;;;22.40;65.00;;;;;;10332476;28;19934;-70
2023/09/17 06:12:54;;;;;;;;;;;22.40;65.00;;;;;;10352789;28;20767;-70
2023/09/17 06:17:56;;;;;;;;;;;22.40;65.10;;;;;;10354740;28;19934;-70
2023/09/17 06:22:59;;;;;;;;;;;22.40;65.10;;;;;;10336248;28;19934;-69
2023/09/17 06:28:01;;;;;;;;;;;22.40;65.10;;;;;;10338323;28;19938;-68
2023/09/17 06:33:03;;;;;;;;;;;22.40;65.10;;;;;;10350134;28;19933;-69
2023/09/17 06:38:05;;;;;;;;;;;22.40;65.10;;;;;;10343942;28;19934;-69
2023/09/17 06:43:07;;;;;;;;;;;22.40;65.20;;;;;;10345146;28;19933;-69
2023/09/17 06:48:09;;;;;;;;;;;22.40;65.10;;;;;;10343209;28;19961;-69
2023/09/17 06:53:10;;;;;;;;;;;22.40;65.20;;;;;;10340102;28;19938;-69
2023/09/17 06:58:16;;;;;;;;;;;22.40;65.20;;;;;;10334956;28;19934;-70
2023/09/17 07:03:18;;;;;;;;;;;22.40;66.10;;;;;;10357354;28;19937;-67
2023/09/17 07:08:20;;;;;;;;;;;22.50;66.20;;;;;;10332491;28;19934;-72
2023/09/17 07:13:22;;;;;;;;;;;22.50;66.20;;;;;;10342149;28;19966;-68
2023/09/17 07:18:26;;;;;;;;;;;22.50;66.50;;;;;;10341264;28;20713;-73
2023/09/17 07:23:29;;;;;;;;;;;22.50;66.50;;;;;;10346702;28;20304;-67
2023/09/17 07:28:31;;;;;;;;;;;22.50;66.60;;;;;;10342883;28;19933;-68
2023/09/17 07:33:33;;;;;;;;;;;22.60;66.50;;;;;;10349210;28;20320;-67
2023/09/17 07:38:35;;;;;;;;;;;22.60;66.50;;;;;;10349027;28;19938;-68
2023/09/17 07:43:37;;;;;;;;;;;22.50;66.50;;;;;;10352843;28;19989;-67
2023/09/17 07:48:39;;;;;;;;;;;22.50;66.60;;;;;;10350678;28;20340;-68
2023/09/17 07:53:41;;;;;;;;;;;22.50;66.60;;;;;;10352153;28;19940;-67
2023/09/17 07:58:43;;;;;;;;;;;22.50;66.50;;;;;;10342927;28;19987;-68
2023/09/17 08:03:45;;;;;;;;;;;22.50;66.60;;;;;;10357984;28;20412;-67
2023/09/17 08:08:47;;;;;;;;;;;22.40;66.50;;;;;;10332489;28;20576;-68
2023/09/17 08:13:49;;;;;;;;;;;22.50;66.50;;;;;;10342081;28;20377;-68
2023/09/17 08:18:52;;;;;;;;;;;22.40;66.50;;;;;;10349764;28;19940;-68
2023/09/17 08:23:54;;;;;;;;;;;22.40;66.50;;;;;;10340838;28;20028;-68
2023/09/17 08:28:56;;;;;;;;;;;22.40;66.50;;;;;;10350249;28;19934;-68
2023/09/17 08:34:00;;;;;;;;;;;22.40;66.50;;;;;;10349146;28;19934;-68
2023/09/17 08:39:04;;;;;;;;;;;22.40;66.50;;;;;;10366010;28;19933;-68
2023/09/17 08:44:05;;;;;;;;;;;22.40;66.60;;;;;;10350601;28;20393;-68
2023/09/17 08:49:07;;;;;;;;;;;22.30;66.60;;;;;;10347944;28;20000;-68
2023/09/17 08:54:24;;;;;;;;;;;22.30;66.60;;;;;;10347870;28;20021;-68
2023/09/17 08:59:29;;;;;;;;;;;22.40;66.60;;;;;;10346203;28;19940;-68
2023/09/17 09:04:34;;;;;;;;;;;22.30;66.50;;;;;;10355057;28;19933;-68
2023/09/17 09:09:37;;;;;;;;;;;22.30;66.50;;;;;;10351381;28;19934;-68
2023/09/17 09:14:40;;;;;;;;;;;22.30;66.60;;;;;;10351286;28;19940;-68
2023/09/17 09:19:41;;;;;;;;;;;22.30;66.60;;;;;;10354468;28;20093;-68
2023/09/17 09:24:43;;;;;;;;;;;22.30;66.70;;;;;;10355714;28;19965;-68
2023/09/17 09:29:45;;;;;;;;;;;22.30;66.70;;;;;;10354502;28;20036;-68
2023/09/17 09:34:47;;;;;;;;;;;22.30;66.80;;;;;;10355747;28;19933;-68
2023/09/17 09:39:49;;;;;;;;;;;22.30;66.80;;;;;;10345549;28;20400;-68
2023/09/17 09:44:53;;;;;;;;;;;22.30;66.80;;;;;;10357224;28;19937;-68
2023/09/17 09:49:56;;;;;;;;;;;22.30;66.80;;;;;;10348115;28;19941;-69
2023/09/17 09:54:59;;;;;;;;;;;22.30;66.80;;;;;;10338769;28;19934;-68
2023/09/17 10:00:07;;;;;;;;;;;22.30;66.80;;;;;;10359140;28;19934;-68
2023/09/17 10:05:12;;;;;;;;;;;22.30;66.80;;;;;;10331423;28;20125;-69
2023/09/17 10:10:15;;;;;;;;;;;22.30;66.90;;;;;;10343045;28;19934;-68
2023/09/17 10:15:16;;;;;;;;;;;22.30;67.20;;;;;;10328709;28;20381;-68
2023/09/17 10:20:20;;;;;;;;;;;22.30;67.00;;;;;;10330810;28;19940;-68
2023/09/17 10:25:29;;;;;;;;;;;22.30;66.90;;;;;;10337528;28;19940;-66
2023/09/17 10:30:30;;;;;;;;;;;22.30;67.00;;;;;;10344217;28;20068;-67
2023/09/17 10:35:33;;;;;;;;;;;22.30;67.30;;;;;;10338627;28;19977;-66
2023/09/17 10:40:36;;;;;;;;;;;22.30;68.60;;;;;;10350562;28;19957;-67
2023/09/17 10:45:40;;;;;;;;;;;22.30;67.50;;;;;;10342374;28;19934;-67
2023/09/17 10:50:42;;;;;;;;;;;22.50;68.60;;;;;;10340520;28;20018;-70
2023/09/17 10:55:47;;;;;;;;;;;22.60;67.60;;;;;;10347946;28;19940;-70
2023/09/17 11:00:49;;;;;;;;;;;22.60;67.50;;;;;;10345427;28;19961;-70
2023/09/17 11:05:54;;;;;;;;;;;22.60;67.60;;;;;;10356734;28;19977;-70
2023/09/17 11:10:55;;;;;;;;;;;22.60;67.60;;;;;;10335301;28;19940;-69
2023/09/17 11:15:58;;;;;;;;;;;22.70;67.80;;;;;;10339461;28;20457;-69
2023/09/17 11:21:06;;;;;;;;;;;22.60;67.80;;;;;;10338454;28;19934;-69
2023/09/17 11:26:08;;;;;;;;;;;22.70;68.00;;;;;;10338724;28;19933;-68
2023/09/17 11:31:12;;;;;;;;;;;22.60;68.20;;;;;;10335102;28;19941;-68
2023/09/17 11:36:14;;;;;;;;;;;22.60;68.10;;;;;;10332310;28;19957;-68
2023/09/17 11:41:19;;;;;;;;;;;22.60;68.70;;;;;;10339048;28;19934;-68
2023/09/17 11:46:20;;;;;;;;;;;22.60;69.20;;;;;;10344593;28;19985;-68
2023/09/17 11:51:24;;;;;;;;;;;22.50;69.70;;;;;;10343448;28;20103;-69
2023/09/17 11:56:29;;;;;;;;;;;22.50;69.90;;;;;;10349610;28;20403;-68
2023/09/17 12:01:32;;;;;;;;;;;22.50;70.10;;;;;;10340438;28;19940;-68
2023/09/17 12:06:39;;;;;;;;;;;22.50;70.50;;;;;;10334358;28;20004;-68
2023/09/17 12:11:41;;;;;;;;;;;22.40;70.80;;;;;;10328531;28;20488;-67
2023/09/17 12:16:43;;;;;;;;;;;22.40;71.90;;;;;;10349168;28;20076;-67
2023/09/17 12:21:47;;;;;;;;;;;22.40;71.90;;;;;;10341365;28;20824;-68
2023/09/17 12:27:09;;;;;;;;;;;22.40;71.70;;;;;;10347038;28;20393;-67
2023/09/17 12:32:11;;;;;;;;;;;22.50;71.60;;;;;;10344883;28;20141;-67
2023/09/17 12:37:13;;;;;;;;;;;22.50;71.60;;;;;;10349369;28;19944;-66
2023/09/17 12:42:16;;;;;;;;;;;22.50;71.40;;;;;;10340423;28;19934;-66
2023/09/17 12:47:19;;;;;;;;;;;22.50;71.60;;;;;;10332721;28;20369;-68
2023/09/17 12:52:22;;;;;;;;;;;22.50;71.50;;;;;;10335518;28;20030;-68
2023/09/17 12:57:24;;;;;;;;;;;22.50;71.50;;;;;;10342692;28;20344;-67
2023/09/17 13:02:28;;;;;;;;;;;22.60;71.70;;;;;;10328809;28;19933;-68
2023/09/17 13:07:30;;;;;;;;;;;22.50;71.60;;;;;;10345499;28;19934;-67
2023/09/17 13:12:33;;;;;;;;;;;22.50;71.50;;;;;;10333251;28;19933;-67
2023/09/17 13:17:35;;;;;;;;;;;22.50;71.50;;;;;;10338862;28;19938;-67
2023/09/17 13:22:37;;;;;;;;;;;22.50;71.50;;;;;;10334398;28;19934;-67
2023/09/17 13:27:38;;;;;;;;;;;22.50;71.50;;;;;;10337651;28;20045;-66
2023/09/17 13:32:40;;;;;;;;;;;22.50;71.60;;;;;;10341052;28;20321;-66
2023/09/17 13:37:42;;;;;;;;;;;22.50;71.50;;;;;;10341570;28;19934;-66
2023/09/17 13:42:44;;;;;;;;;;;22.50;71.60;;;;;;10327769;28;19933;-65
2023/09/17 13:47:46;;;;;;;;;;;22.50;71.60;;;;;;10347454;28;19941;-67
2023/09/17 13:52:47;;;;;;;;;;;22.50;71.70;;;;;;10355933;28;19938;-67
2023/09/17 13:57:50;;;;;;;;;;;22.50;71.70;;;;;;10350112;28;19977;-69
2023/09/17 14:02:54;;;;;;;;;;;22.50;71.90;;;;;;10349060;28;20389;-68
2023/09/17 14:07:57;;;;;;;;;;;22.50;72.60;;;;;;10339657;28;20083;-67
2023/09/17 14:13:03;;;;;;;;;;;22.50;72.30;;;;;;10340848;28;20384;-68
2023/09/17 14:18:05;;;;;;;;;;;22.50;72.40;;;;;;10332163;28;19933;-68
2023/09/17 14:23:07;;;;;;;;;;;22.50;72.40;;;;;;10346388;28;20031;-68
2023/09/17 14:28:09;;;;;;;;;;;22.50;72.50;;;;;;10342550;28;19933;-68
2023/09/17 14:33:11;;;;;;;;;;;22.50;72.50;;;;;;10343055;28;19933;-68
2023/09/17 14:38:13;;;;;;;;;;;22.50;72.40;;;;;;10346984;28;19946;-68
2023/09/17 14:43:14;;;;;;;;;;;22.50;72.90;;;;;;10353705;28;19933;-68
2023/09/17 14:48:16;;;;;;;;;;;22.50;73.50;;;;;;10352700;28;20182;-68
2023/09/17 14:53:18;;;;;;;;;;;22.40;73.20;;;;;;10330806;28;19934;-68
2023/09/17 14:58:20;;;;;;;;;;;22.40;73.30;;;;;;10349532;28;19934;-68
2023/09/17 15:03:25;;;;;;;;;;;22.40;73.20;;;;;;10347820;28;19973;-68
2023/09/17 15:08:28;;;;;;;;;;;22.40;73.10;;;;;;10352281;28;19940;-68
2023/09/17 15:13:29;;;;;;;;;;;22.40;73.00;;;;;;10353539;28;19934;-67
2023/09/17 15:18:31;;;;;;;;;;;22.40;73.00;;;;;;10344312;28;20485;-68
2023/09/17 15:23:33;;;;;;;;;;;22.40;73.00;;;;;;10348154;28;19941;-68
2023/09/17 15:28:35;;;;;;;;;;;22.40;73.20;;;;;;10357417;28;19940;-68
2023/09/17 15:33:38;;;;;;;;;;;22.40;73.50;;;;;;10359643;28;20280;-68
2023/09/17 15:38:41;;;;;;;;;;;22.40;73.80;;;;;;10340247;28;20025;-68
2023/09/17 15:43:43;;;;;;;;;;;22.40;74.00;;;;;;10337527;28;19934;-68
2023/09/17 15:48:45;;;;;;;;;;;22.40;74.00;;;;;;10338715;28;19934;-67
2023/09/17 15:53:47;;;;;;;;;;;22.40;74.10;;;;;;10330489;28;19987;-66
2023/09/17 15:58:49;;;;;;;;;;;22.40;74.60;;;;;;10351312;28;19934;-67
2023/09/17 16:03:52;;;;;;;;;;;22.50;74.00;;;;;;10335839;28;19934;-66
2023/09/17 16:08:54;;;;;;;;;;;22.60;75.00;;;;;;10327269;28;20380;-68
2023/09/17 16:13:59;;;;;;;;;;;22.70;74.30;;;;;;10350841;28;20394;-70
2023/09/17 16:19:01;;;;;;;;;;;22.90;74.30;;;;;;10350756;28;20635;-65
2023/09/17 16:24:02;;;;;;;;;;;23.00;75.00;;;;;;10348925;28;20098;-67
2023/09/17 16:29:05;;;;;;;;;;;23.10;76.00;;;;;;10348503;28;20316;-65
2023/09/17 16:34:06;;;;;;;;;;;23.20;75.30;;;;;;10333514;28;20483;-67
2023/09/17 16:39:08;;;;;;;;;;;23.30;73.60;;;;;;10345956;28;19940;-70
2023/09/17 16:44:10;;;;;;;;;;;23.40;72.90;;;;;;10335815;28;19934;-67
2023/09/17 16:49:12;;;;;;;;;;;23.30;72.40;;;;;;10331459;28;20643;-68
2023/09/17 16:54:14;;;;;;;;;;;23.30;72.20;;;;;;10346973;28;20024;-69
2023/09/17 16:59:16;;;;;;;;;;;23.20;72.20;;;;;;10348276;28;19942;-69
2023/09/17 17:04:17;;;;;;;;;;;23.10;73.10;;;;;;10340885;28;19934;-71
2023/09/17 17:09:19;;;;;;;;;;;23.10;73.00;;;;;;10340191;28;19934;-70
2023/09/17 17:14:22;;;;;;;;;;;23.00;73.00;;;;;;10342146;28;20843;-71
2023/09/17 17:19:24;;;;;;;;;;;22.90;73.00;;;;;;10331645;28;19985;-71
2023/09/17 17:24:25;;;;;;;;;;;22.80;73.20;;;;;;10334772;28;19941;-71
2023/09/17 17:29:27;;;;;;;;;;;22.70;73.40;;;;;;10355778;28;19940;-71
2023/09/17 17:34:29;;;;;;;;;;;22.70;73.60;;;;;;10354914;28;19934;-71
2023/09/17 17:39:31;;;;;;;;;;;22.60;73.60;;;;;;10361733;28;19941;-71
2023/09/17 17:44:33;;;;;;;;;;;22.60;73.70;;;;;;10343161;28;20032;-71
2023/09/17 17:49:35;;;;;;;;;;;22.60;73.70;;;;;;10351380;28;20767;-71
2023/09/17 17:54:37;;;;;;;;;;;22.50;73.70;;;;;;10343108;28;20484;-71
2023/09/17 17:59:40;;;;;;;;;;;22.50;73.70;;;;;;10352176;28;19934;-71
2023/09/17 18:04:42;;;;;;;;;;;22.50;73.70;;;;;;10334513;28;19934;-71
2023/09/17 18:09:44;;;;;;;;;;;22.50;73.70;;;;;;10349048;28;19940;-71
2023/09/17 18:14:46;;;;;;;;;;;22.50;73.70;;;;;;10355447;28;19940;-71
2023/09/17 18:19:48;;;;;;;;;;;22.50;73.60;;;;;;10334047;28;19940;-71
2023/09/17 18:24:50;;;;;;;;;;;22.40;73.50;;;;;;10340784;28;19934;-71
2023/09/17 18:29:53;;;;;;;;;;;22.40;73.60;;;;;;10342749;28;20032;-71
2023/09/17 18:34:55;;;;;;;;;;;22.40;73.40;;;;;;10353140;28;20039;-71
2023/09/17 18:39:57;;;;;;;;;;;22.40;73.40;;;;;;10341813;28;19934;-70
2023/09/17 18:44:59;;;;;;;;;;;22.40;73.40;;;;;;10351564;28;20022;-71
2023/09/17 18:50:01;;;;;;;;;;;22.40;73.20;;;;;;10343538;28;19956;-71
2023/09/17 18:55:03;;;;;;;;;;;22.40;73.20;;;;;;10345442;28;20304;-71
2023/09/17 19:00:08;;;;;;;;;;;22.40;73.10;;;;;;10352785;28;19934;-71
2023/09/17 19:05:09;;;;;;;;;;;22.40;73.00;;;;;;10343284;28;20366;-71
2023/09/17 19:10:14;;;;;;;;;;;22.40;73.00;;;;;;10339060;28;19934;-71
2023/09/17 19:15:16;;;;;;;;;;;22.40;73.00;;;;;;10345063;28;20175;-71
2023/09/17 19:20:18;;;;;;;;;;;22.40;72.80;;;;;;10353250;28;19934;-71
2023/09/17 19:25:20;;;;;;;;;;;22.40;72.80;;;;;;10354774;28;19941;-71
2023/09/17 19:30:23;;;;;;;;;;;22.40;72.70;;;;;;10348828;28;19933;-71
2023/09/17 19:35:24;;;;;;;;;;;22.40;72.90;;;;;;10348323;28;20131;-71
2023/09/17 19:40:27;;;;;;;;;;;22.40;72.80;;;;;;10348631;28;19956;-71
2023/09/17 19:45:29;;;;;;;;;;;22.40;72.80;;;;;;10345971;28;19934;-71
2023/09/17 19:50:31;;;;;;;;;;;22.40;72.70;;;;;;10352032;28;20035;-70
2023/09/17 19:55:32;;;;;;;;;;;22.40;72.60;;;;;;10347234;28;19941;-71
2023/09/17 20:00:34;;;;;;;;;;;22.40;72.50;;;;;;10340180;28;19964;-71
2023/09/17 20:05:37;;;;;;;;;;;22.40;72.30;;;;;;10338009;28;19944;-71
2023/09/17 20:10:40;;;;;;;;;;;22.40;72.30;;;;;;10338427;28;20033;-71
2023/09/17 20:15:45;;;;;;;;;;;22.40;72.20;;;;;;10348241;28;20490;-71
2023/09/17 20:20:48;;;;;;;;;;;22.30;72.10;;;;;;10338263;28;19934;-71
2023/09/17 20:25:49;;;;;;;;;;;22.30;72.10;;;;;;10346652;28;19933;-71
2023/09/17 20:30:52;;;;;;;;;;;22.30;72.10;;;;;;10341040;28;19934;-71
2023/09/17 20:35:54;;;;;;;;;;;22.30;72.10;;;;;;10361990;28;20282;-71
2023/09/17 20:40:58;;;;;;;;;;;22.30;72.10;;;;;;10342296;28;19934;-71
2023/09/17 20:46:00;;;;;;;;;;;22.20;72.00;;;;;;10335389;28;20063;-70
2023/09/17 20:51:02;;;;;;;;;;;22.20;72.00;;;;;;10342786;28;19934;-71
2023/09/17 20:56:06;;;;;;;;;;;22.30;72.10;;;;;;10338145;28;20089;-71
2023/09/17 21:01:07;;;;;;;;;;;22.20;71.90;;;;;;10351878;28;19934;-69
2023/09/17 21:06:09;;;;;;;;;;;22.30;72.10;;;;;;10357653;28;20378;-71
2023/09/17 21:11:11;;;;;;;;;;;22.30;72.30;;;;;;10357023;28;19940;-73
2023/09/17 21:16:14;;;;;;;;;;;22.30;72.10;;;;;;10347929;28;20056;-72
2023/09/17 21:21:17;;;;;;;;;;;22.30;72.00;;;;;;10359498;28;20181;-71
2023/09/17 21:26:19;;;;;;;;;;;22.30;72.10;;;;;;10361827;28;20294;-71
2023/09/17 21:31:23;;;;;;;;;;;22.30;72.10;;;;;;10349075;28;19934;-71
2023/09/17 21:36:25;;;;;;;;;;;22.30;72.20;;;;;;10385909;28;19933;-70
2023/09/17 21:41:27;;;;;;;;;;;22.30;72.30;;;;;;10355545;28;19934;-72
2023/09/17 21:46:29;;;;;;;;;;;22.20;72.30;;;;;;10361083;28;19940;-71
2023/09/17 21:51:31;;;;;;;;;;;22.20;72.30;;;;;;10361322;28;20045;-71
2023/09/17 21:56:32;;;;;;;;;;;22.20;72.30;;;;;;10362575;28;19934;-71
2023/09/17 22:01:35;;;;;;;;;;;22.20;72.30;;;;;;10365177;28;19933;-71
2023/09/17 22:06:36;;;;;;;;;;;22.20;72.40;;;;;;10360863;28;20437;-71
2023/09/17 22:11:38;;;;;;;;;;;22.20;72.30;;;;;;10355473;28;19941;-71
2023/09/17 22:16:40;;;;;;;;;;;22.20;72.30;;;;;;10357901;28;19933;-72
2023/09/17 22:21:42;;;;;;;;;;;22.20;72.30;;;;;;10353805;28;20486;-71
2023/09/17 22:26:45;;;;;;;;;;;22.20;73.20;;;;;;10352559;28;19992;-71
2023/09/17 22:31:47;;;;;;;;;;;22.20;72.20;;;;;;10343346;28;20492;-71
2023/09/17 22:36:49;;;;;;;;;;;22.20;72.20;;;;;;10344995;28;19933;-71
2023/09/17 22:41:50;;;;;;;;;;;22.20;72.10;;;;;;10355073;28;19940;-71
2023/09/17 22:46:52;;;;;;;;;;;22.20;72.10;;;;;;10348313;28;19933;-68
2023/09/17 22:51:55;;;;;;;;;;;22.20;72.10;;;;;;10350676;28;19937;-71
2023/09/17 22:57:00;;;;;;;;;;;22.30;72.10;;;;;;10337952;28;19934;-71
2023/09/17 23:02:02;;;;;;;;;;;22.30;71.90;;;;;;10347386;28;20442;-72
2023/09/17 23:07:04;;;;;;;;;;;22.30;71.90;;;;;;10337404;28;19941;-72
2023/09/17 23:12:06;;;;;;;;;;;22.30;71.90;;;;;;10345043;28;20063;-71
2023/09/17 23:17:07;;;;;;;;;;;22.30;71.80;;;;;;10338305;28;19933;-72
2023/09/17 23:22:09;;;;;;;;;;;22.30;71.80;;;;;;10343624;28;19943;-72
2023/09/17 23:27:11;;;;;;;;;;;22.30;71.80;;;;;;10349798;28;20307;-71
2023/09/17 23:32:13;;;;;;;;;;;22.30;71.70;;;;;;10351033;28;19933;-71
2023/09/17 23:37:16;;;;;;;;;;;22.30;71.70;;;;;;10352020;28;19956;-71
2023/09/17 23:42:18;;;;;;;;;;;22.30;71.70;;;;;;10354566;28;19934;-71
2023/09/17 23:47:19;;;;;;;;;;;22.30;71.80;;;;;;10331837;28;19934;-71
2023/09/17 23:52:23;;;;;;;;;;;22.20;71.70;;;;;;10328150;28;20036;-72
2023/09/17 23:57:28;;;;;;;;;;;22.20;71.70;;;;;;10358152;28;35528;-72
